Terminal Aerodrome Forecast
Issued by NWS Northern Indiana

Home | Current Version | Previous Version | Text Only | Print | Product List | Glossary On
Versions: 1 2 3 4 5 6 7 8 9 10 11 12 13 14 15 16 17
000
FTUS43 KIWX 310520
TAFFWA
TAF
KFWA 310520Z 3106/0106 22003KT P6SM FEW035 BKN150
     FM311000 VRB02KT 3SM BR BKN007 OVC025
     FM311400 31004KT P6SM BKN020
     FM311700 34007KT P6SM VCTS BKN040CB
     FM312200 35008KT P6SM SCT040 BKN100
     FM010100 36005KT P6SM FEW250=

USA.gov is the U.S. government's official web portal to all federal, state and local government web resources and services.